Time;durP1;ratioP1;P1;durP2;ratioP2;P2;SDS_P1;SDS_P2;PMS_P1;PMS_P2;Temp;Humidity;BMP_temperature;BMP_pressure;BME280_temperature;BME280_humidity;BME280_pressure;Samples;Min_cycle;Max_cycle;Signal;HPM_P1;HPM_P2
2023/09/12 00:01:24;;;;;;;1.02;0.95;;;;;;;19.70;60.27;99513.63;4425253;32;20093;-90
2023/09/12 00:03:50;;;;;;;0.90;0.80;;;;;;;19.58;60.26;99511.88;4411722;32;20142;-90
2023/09/12 00:06:15;;;;;;;0.40;0.37;;;;;;;19.59;60.25;99513.56;4412258;32;20610;-89
2023/09/12 00:08:41;;;;;;;1.02;0.80;;;;;;;19.75;60.26;99508.00;4424518;32;20143;-90
2023/09/12 00:11:10;;;;;;;11.90;1.20;;;;;;;19.48;60.25;99516.97;4412799;32;20105;-89
2023/09/12 00:13:35;;;;;;;1.10;0.85;;;;;;;19.43;60.25;99526.16;4427333;32;20100;-88
2023/09/12 00:16:01;;;;;;;1.45;0.75;;;;;;;19.54;60.25;99518.34;4427028;32;20535;-88
2023/09/12 00:18:26;;;;;;;0.98;0.68;;;;;;;19.49;60.25;99523.06;4413771;32;20089;-89
2023/09/12 00:20:52;;;;;;;0.28;0.28;;;;;;;19.50;60.25;99516.84;4414344;32;20159;-88
2023/09/12 00:23:18;;;;;;;0.20;0.20;;;;;;;19.55;60.26;99510.31;4426827;32;20131;-89
2023/09/12 00:25:43;;;;;;;5.70;0.35;;;;;;;19.57;60.26;99511.03;4453650;32;20113;-88
2023/09/12 00:28:09;;;;;;;1.55;0.68;;;;;;;19.51;60.25;99507.97;4439238;32;20450;-88
2023/09/12 00:30:34;;;;;;;0.45;0.20;;;;;;;19.36;60.25;99511.69;4441230;32;20128;-87
2023/09/12 00:32:59;;;;;;;0.32;0.32;;;;;;;19.42;60.25;99508.66;4454003;32;20161;-88
2023/09/12 00:35:25;;;;;;;0.03;0.03;;;;;;;19.54;60.25;99510.41;4426111;32;26209;-88
2023/09/12 00:37:50;;;;;;;0.77;0.47;;;;;;;19.55;60.26;99506.81;4425840;32;22500;-87
2023/09/12 00:40:15;;;;;;;3.00;1.55;;;;;;;19.44;60.25;99512.00;4439520;32;20101;-89
2023/09/12 00:42:41;;;;;;;0.10;0.10;;;;;;;19.41;60.25;99514.88;4438801;32;30078;-88
2023/09/12 00:45:07;;;;;;;1.92;1.08;;;;;;;19.43;60.25;99508.53;4426459;32;20092;-88
2023/09/12 00:47:32;;;;;;;3.40;1.55;;;;;;;19.47;60.25;99519.72;4426197;32;20137;-89
2023/09/12 00:49:57;;;;;;;1.80;1.70;;;;;;;19.17;60.24;99512.19;4428188;32;20127;-88
2023/09/12 00:52:24;;;;;;;0.10;0.10;;;;;;;19.20;60.23;99512.81;4427028;32;20193;-89
2023/09/12 00:54:50;;;;;;;0.90;0.82;;;;;;;19.27;60.24;99510.56;4414001;32;20582;-88
2023/09/12 00:57:15;;;;;;;0.32;0.32;;;;;;;19.05;60.23;99508.63;4426437;32;20555;-89
2023/09/12 00:59:41;;;;;;;1.10;0.70;;;;;;;19.11;60.23;99513.44;4426012;32;32901;-89
2023/09/12 01:02:06;;;;;;;0.00;0.00;;;;;;;19.08;60.23;99516.31;4424431;32;20416;-89
2023/09/12 01:04:32;;;;;;;0.13;0.13;;;;;;;19.13;60.23;99516.81;4398842;32;20148;-89
2023/09/12 01:06:58;;;;;;;0.20;0.20;;;;;;;19.13;60.23;99505.44;4413194;32;20120;-88
2023/09/12 01:09:23;;;;;;;4.45;0.50;;;;;;;19.19;60.23;99515.56;4414708;32;20131;-89
2023/09/12 01:11:49;;;;;;;0.17;0.17;;;;;;;19.02;60.23;99514.97;4431177;32;20173;-89
2023/09/12 01:14:14;;;;;;;0.60;0.50;;;;;;;18.89;60.21;99515.91;4427877;32;20139;-88
2023/09/12 01:16:40;;;;;;;0.52;0.52;;;;;;;18.87;60.22;99516.03;4428057;32;20119;-88
2023/09/12 01:19:05;;;;;;;0.77;0.77;;;;;;;18.78;60.22;99515.84;4441085;32;20111;-90
2023/09/12 01:21:53;;;;;;;0.80;0.80;;;;;;;18.81;60.22;99512.97;4415481;32;20108;-89
2023/09/12 01:25:08;;;;;;;0.28;0.28;;;;;;;18.91;60.22;99511.38;4442378;32;20232;-88
2023/09/12 01:27:46;;;;;;;1.23;1.12;;;;;;;18.98;60.22;99505.59;4429463;32;20069;-89
2023/09/12 01:30:11;;;;;;;0.40;0.40;;;;;;;19.05;60.23;99503.34;4415431;32;20111;-89
2023/09/12 01:32:37;;;;;;;0.43;0.43;;;;;;;19.01;60.23;99515.91;4428115;32;20124;-90
2023/09/12 01:35:03;;;;;;;4.00;0.88;;;;;;;18.86;60.22;99511.69;4428132;32;20241;-89
2023/09/12 01:37:32;;;;;;;0.20;0.20;;;;;;;18.86;60.22;99505.59;4416032;32;20140;-90
2023/09/12 01:39:58;;;;;;;0.52;0.52;;;;;;;18.89;60.22;99516.75;4429315;32;20164;-90
2023/09/12 01:42:23;;;;;;;0.37;0.37;;;;;;;18.93;60.22;99506.88;4429311;32;20101;-90
2023/09/12 01:44:55;;;;;;;0.00;0.00;;;;;;;18.75;60.21;99508.97;4418092;32;20153;-89
2023/09/12 01:47:20;;;;;;;0.00;0.00;;;;;;;18.82;60.21;99510.22;4417412;32;20453;-90
2023/09/12 01:49:47;;;;;;;3.65;0.73;;;;;;;18.83;60.21;99511.06;4415353;32;20157;-90
2023/09/12 01:52:13;;;;;;;0.68;0.62;;;;;;;18.67;60.20;99512.13;4415271;32;20177;-90
2023/09/12 01:54:38;;;;;;;1.40;0.52;;;;;;;18.76;60.21;99523.00;4415395;32;20116;-90
2023/09/12 01:57:04;;;;;;;1.12;1.02;;;;;;;18.74;60.21;99523.13;4415423;32;20158;-89
2023/09/12 01:59:29;;;;;;;3.10;1.40;;;;;;;18.80;60.22;99519.19;4415303;32;20105;-90
2023/09/12 02:01:55;;;;;;;0.10;0.10;;;;;;;18.71;60.22;99518.06;4415216;32;20498;-88
2023/09/12 02:04:20;;;;;;;0.30;0.30;;;;;;;18.64;60.21;99520.25;4440863;32;20096;-89
2023/09/12 02:06:46;;;;;;;0.20;0.20;;;;;;;18.54;60.20;99513.91;4416387;32;20494;-89
2023/09/12 02:09:11;;;;;;;3.78;0.90;;;;;;;18.60;60.19;99512.63;4415116;32;20110;-90
2023/09/12 02:11:37;;;;;;;0.10;0.10;;;;;;;18.59;60.20;99524.97;4440515;32;20153;-89
2023/09/12 02:14:02;;;;;;;0.30;0.28;;;;;;;18.50;60.20;99519.50;4428019;32;20152;-90
2023/09/12 02:16:29;;;;;;;0.47;0.47;;;;;;;18.63;60.21;99523.84;4440393;32;20097;-91
2023/09/12 02:18:54;;;;;;;0.30;0.30;;;;;;;18.59;60.20;99527.59;4415153;32;20162;-90
2023/09/12 02:21:20;;;;;;;0.17;0.17;;;;;;;18.58;60.20;99520.66;4427917;32;20112;-89
2023/09/12 02:23:45;;;;;;;0.10;0.10;;;;;;;18.66;60.20;99523.63;4415144;32;20131;-90
2023/09/12 02:26:10;;;;;;;3.08;2.05;;;;;;;18.68;60.20;99524.34;4440902;32;20119;-89
2023/09/12 02:28:36;;;;;;;5.72;0.32;;;;;;;18.61;60.19;99523.06;4429410;32;22208;-89
2023/09/12 02:31:01;;;;;;;0.00;0.00;;;;;;;18.57;60.21;99515.50;4414902;32;20112;-89
2023/09/12 02:33:27;;;;;;;0.15;0.15;;;;;;;18.59;60.20;99527.59;4427702;32;20122;-89
2023/09/12 02:35:53;;;;;;;2.35;0.40;;;;;;;18.50;60.20;99516.88;4426869;32;20120;-89
2023/09/12 02:38:18;;;;;;;0.37;0.37;;;;;;;18.44;60.19;99519.91;4415365;32;20157;-89
2023/09/12 02:40:43;;;;;;;0.10;0.10;;;;;;;18.33;60.19;99523.25;4428414;32;20515;-89
2023/09/12 02:43:09;;;;;;;0.35;0.35;;;;;;;18.23;60.19;99527.47;4428788;32;20202;-89
2023/09/12 02:45:34;;;;;;;0.85;0.85;;;;;;;18.18;60.18;99517.22;4420115;32;20124;-89
2023/09/12 02:48:00;;;;;;;0.00;0.00;;;;;;;18.13;60.17;99521.13;4437246;32;20159;-87
2023/09/12 02:50:25;;;;;;;0.85;0.75;;;;;;;18.40;60.19;99520.09;4434869;32;20149;-89
2023/09/12 02:52:51;;;;;;;0.00;0.00;;;;;;;18.20;60.18;99525.03;4441658;32;20494;-89
2023/09/12 02:55:16;;;;;;;0.50;0.50;;;;;;;18.14;60.17;99523.66;4415706;32;20092;-88
2023/09/12 02:57:42;;;;;;;3.00;1.20;;;;;;;18.20;60.17;99517.97;4440029;32;20156;-89
2023/09/12 03:00:09;;;;;;;0.30;0.30;;;;;;;18.23;60.19;99515.16;4427180;32;20424;-89
2023/09/12 03:02:34;;;;;;;1.12;0.75;;;;;;;18.12;60.18;99516.81;4427687;32;20131;-89
2023/09/12 03:05:01;;;;;;;0.90;0.75;;;;;;;18.08;60.18;99510.91;4414399;32;20101;-88
2023/09/12 03:07:27;;;;;;;2.20;1.48;;;;;;;18.03;60.17;99516.47;4427407;32;20084;-88
2023/09/12 03:09:52;;;;;;;0.30;0.30;;;;;;;18.00;60.16;99518.47;4440103;32;20150;-89
2023/09/12 03:12:17;;;;;;;0.10;0.10;;;;;;;17.86;60.17;99518.53;4414724;32;20108;-89
2023/09/12 03:14:43;;;;;;;0.68;0.55;;;;;;;17.94;60.17;99519.69;4415628;32;20093;-90
2023/09/12 03:17:08;;;;;;;1.67;1.50;;;;;;;18.05;60.17;99525.12;4415549;32;20185;-89
2023/09/12 03:19:34;;;;;;;0.30;0.30;;;;;;;18.39;60.19;99525.47;4429995;32;20168;-89
2023/09/12 03:21:59;;;;;;;1.05;0.57;;;;;;;18.04;60.17;99519.94;4418379;32;20172;-90
2023/09/12 03:24:25;;;;;;;0.22;0.22;;;;;;;18.07;60.17;99523.22;4414300;32;20089;-89
2023/09/12 03:26:51;;;;;;;0.50;0.50;;;;;;;18.07;60.18;99525.84;4439843;32;20140;-89
2023/09/12 03:29:16;;;;;;;0.37;0.37;;;;;;;18.23;60.19;99525.69;4427058;32;20458;-89
2023/09/12 03:31:42;;;;;;;0.62;0.62;;;;;;;18.29;60.18;99525.28;4414336;32;20127;-89
2023/09/12 03:34:07;;;;;;;1.65;0.55;;;;;;;18.10;60.17;99530.91;4414478;32;20647;-88
2023/09/12 03:36:33;;;;;;;2.03;0.55;;;;;;;18.00;60.17;99526.38;4426987;32;20085;-89
2023/09/12 03:38:58;;;;;;;0.40;0.40;;;;;;;17.92;60.17;99534.75;4414199;32;20172;-89
2023/09/12 03:41:25;;;;;;;0.93;0.93;;;;;;;18.13;60.17;99539.56;4427628;32;20198;-88
2023/09/12 03:43:53;;;;;;;4.30;1.77;;;;;;;18.06;60.17;99537.34;4417700;32;20127;-89
2023/09/12 03:46:18;;;;;;;0.25;0.25;;;;;;;17.98;60.17;99534.38;4415419;32;20492;-89
2023/09/12 03:48:43;;;;;;;0.50;0.43;;;;;;;17.99;60.16;99529.97;4441991;32;20108;-90
2023/09/12 03:51:09;;;;;;;0.65;0.65;;;;;;;17.94;60.17;99530.22;4441895;32;20117;-89
2023/09/12 03:53:34;;;;;;;0.20;0.20;;;;;;;18.09;60.17;99531.88;4416257;32;20089;-90
2023/09/12 03:56:00;;;;;;;3.20;2.17;;;;;;;18.00;60.17;99532.50;4428792;32;20111;-89
2023/09/12 03:58:25;;;;;;;0.50;0.45;;;;;;;17.84;60.15;99533.59;4416244;32;20130;-87
2023/09/12 04:00:51;;;;;;;1.17;0.52;;;;;;;17.96;60.16;99530.13;4428902;32;20097;-87
2023/09/12 04:03:16;;;;;;;3.80;1.23;;;;;;;17.85;60.16;99530.84;4429964;32;20373;-88
2023/09/12 04:05:41;;;;;;;0.40;0.40;;;;;;;17.77;60.16;99523.47;4441656;32;20131;-88
2023/09/12 04:08:07;;;;;;;1.73;0.73;;;;;;;18.09;60.17;99526.59;4428713;32;20121;-88
2023/09/12 04:10:32;;;;;;;0.45;0.45;;;;;;;17.95;60.16;99525.81;4428449;32;22305;-88
2023/09/12 04:12:58;;;;;;;1.00;0.45;;;;;;;17.78;60.16;99530.41;4441633;32;20166;-88
2023/09/12 04:15:23;;;;;;;0.40;0.40;;;;;;;17.79;60.16;99531.25;4428535;32;20090;-88
2023/09/12 04:17:49;;;;;;;1.48;1.37;;;;;;;17.76;60.15;99527.03;4455259;32;20154;-88
2023/09/12 04:20:14;;;;;;;0.10;0.10;;;;;;;17.78;60.16;99534.84;4416195;32;20373;-88
2023/09/12 04:22:41;;;;;;;0.47;0.35;;;;;;;17.75;60.15;99532.41;4441680;32;20101;-88
2023/09/12 04:25:07;;;;;;;0.82;0.22;;;;;;;17.84;60.15;99534.44;4444674;32;20111;-88
2023/09/12 04:27:34;;;;;;;3.97;1.62;;;;;;;17.84;60.17;99537.06;4431598;32;20097;-88
2023/09/12 04:29:59;;;;;;;0.52;0.32;;;;;;;17.74;60.15;99533.31;4429213;32;20100;-87
2023/09/12 04:32:24;;;;;;;0.82;0.37;;;;;;;17.66;60.15;99532.94;4428978;32;20254;-88
2023/09/12 04:34:50;;;;;;;0.20;0.20;;;;;;;17.75;60.15;99529.78;4442154;32;20140;-89
2023/09/12 04:37:16;;;;;;;0.60;0.55;;;;;;;17.75;60.15;99538.50;4416746;32;20162;-89
2023/09/12 04:39:41;;;;;;;0.40;0.40;;;;;;;17.87;60.17;99538.66;4429048;32;20104;-87
2023/09/12 04:42:06;;;;;;;1.55;1.05;;;;;;;17.77;60.16;99543.69;4428914;32;20089;-89
2023/09/12 04:44:36;;;;;;;0.37;0.37;;;;;;;17.68;60.14;99539.81;4415349;32;20141;-87
2023/09/12 04:47:02;;;;;;;1.70;1.05;;;;;;;17.74;60.15;99543.84;4428836;32;20265;-88
2023/09/12 04:49:27;;;;;;;0.17;0.17;;;;;;;17.88;60.17;99540.34;4429046;32;20100;-89
2023/09/12 04:51:53;;;;;;;0.85;0.75;;;;;;;17.96;60.16;99545.94;4428238;32;20111;-88
2023/09/12 04:54:18;;;;;;;0.13;0.13;;;;;;;17.97;60.16;99548.47;4440876;32;20121;-89
2023/09/12 04:56:44;;;;;;;5.75;1.30;;;;;;;18.04;60.17;99546.28;4416206;32;20144;-87
2023/09/12 04:59:09;;;;;;;0.17;0.17;;;;;;;18.15;60.17;99550.84;4416031;32;20691;-88
2023/09/12 05:01:34;;;;;;;0.75;0.68;;;;;;;18.24;60.18;99556.34;4415482;32;23632;-88
2023/09/12 05:04:00;;;;;;;4.50;1.08;;;;;;;18.37;60.18;99556.38;4441050;32;20141;-88
2023/09/12 05:06:25;;;;;;;5.93;0.52;;;;;;;18.54;60.20;99556.09;4427890;32;20174;-88
2023/09/12 05:08:51;;;;;;;1.55;0.77;;;;;;;18.41;60.19;99553.41;4415531;32;20120;-88
2023/09/12 05:11:16;;;;;;;0.15;0.15;;;;;;;18.49;60.19;99552.91;4415085;32;20105;-88
2023/09/12 05:13:42;;;;;;;0.52;0.52;;;;;;;18.46;60.19;99552.28;4428310;32;20123;-86
2023/09/12 05:16:07;;;;;;;6.62;1.08;;;;;;;18.48;60.19;99553.88;4440981;32;20135;-88
2023/09/12 05:18:33;;;;;;;0.43;0.28;;;;;;;18.78;60.22;99555.38;4441952;32;20174;-89
2023/09/12 05:20:58;;;;;;;1.80;1.30;;;;;;;19.00;60.21;99550.31;4429439;32;20376;-88
2023/09/12 05:23:24;;;;;;;4.10;1.92;;;;;;;19.07;60.22;99550.72;4427666;32;25581;-88
2023/09/12 05:25:49;;;;;;;0.28;0.28;;;;;;;19.43;60.24;99549.94;4428028;32;20549;-88
2023/09/12 05:28:15;;;;;;;0.13;0.13;;;;;;;19.21;60.23;99546.16;4427790;32;20163;-87
2023/09/12 05:30:42;;;;;;;0.45;0.45;;;;;;;19.37;60.23;99555.62;4415570;32;20096;-88
2023/09/12 05:33:07;;;;;;;0.43;0.43;;;;;;;19.21;60.23;99551.44;4428210;32;20450;-89
2023/09/12 05:35:33;;;;;;;0.88;0.88;;;;;;;19.29;60.22;99557.00;4428136;32;20147;-88
2023/09/12 05:37:58;;;;;;;0.65;0.47;;;;;;;19.26;60.24;99557.25;4415203;32;20172;-87
2023/09/12 05:40:24;;;;;;;0.52;0.52;;;;;;;19.66;60.25;99566.78;4429781;32;20100;-88
2023/09/12 05:42:49;;;;;;;1.12;1.08;;;;;;;19.78;60.26;99566.72;4415626;32;20128;-88
2023/09/12 05:45:14;;;;;;;0.55;0.47;;;;;;;19.76;60.25;99575.72;4441044;32;20526;-89
2023/09/12 05:47:40;;;;;;;0.50;0.50;;;;;;;19.97;60.27;99574.16;4455221;32;20142;-87
2023/09/12 05:50:06;;;;;;;4.95;2.40;;;;;;;20.10;60.28;99572.28;4445373;32;21243;-88
2023/09/12 05:52:35;;;;;;;1.00;0.80;;;;;;;20.20;60.28;99562.72;4424245;32;20781;-89
2023/09/12 05:55:00;;;;;;;0.45;0.45;;;;;;;20.32;60.29;99571.50;4435477;32;20109;-88
2023/09/12 05:57:26;;;;;;;0.30;0.30;;;;;;;20.30;60.28;99568.16;4429799;32;20097;-89
2023/09/12 05:59:51;;;;;;;0.40;0.40;;;;;;;20.47;60.30;99561.63;4429497;32;20109;-88
2023/09/12 06:02:17;;;;;;;0.77;0.77;;;;;;;20.54;60.29;99563.69;4430467;32;20104;-88
2023/09/12 06:04:43;;;;;;;1.65;0.98;;;;;;;20.68;60.30;99569.75;4444234;32;20109;-88
2023/09/12 06:07:08;;;;;;;0.20;0.20;;;;;;;20.81;60.31;99570.47;4438642;32;20162;-88
2023/09/12 06:09:34;;;;;;;0.80;0.80;;;;;;;20.88;60.32;99570.84;4442695;32;20156;-88
2023/09/12 06:11:59;;;;;;;4.05;1.40;;;;;;;20.93;60.31;99572.19;4455892;32;20176;-89
2023/09/12 06:14:24;;;;;;;0.50;0.50;;;;;;;21.07;60.33;99574.59;4435977;32;20105;-89
2023/09/12 06:16:50;;;;;;;1.90;0.80;;;;;;;21.46;60.34;99567.13;4427898;32;20161;-88
2023/09/12 06:19:15;;;;;;;1.77;1.15;;;;;;;21.63;60.35;99571.09;4440879;32;20097;-89
2023/09/12 06:21:42;;;;;;;0.05;0.05;;;;;;;21.71;60.36;99566.00;4428040;32;20093;-89
2023/09/12 06:24:20;;;;;;;3.87;2.03;;;;;;;21.88;60.37;99568.13;4415781;32;20116;-88
2023/09/12 06:26:46;;;;;;;2.83;0.65;;;;;;;21.94;60.36;99564.97;4454915;32;20096;-88
2023/09/12 06:29:13;;;;;;;5.93;0.75;;;;;;;21.93;60.37;99573.91;4427864;32;20149;-89
2023/09/12 06:31:39;;;;;;;0.20;0.20;;;;;;;22.20;60.38;99570.81;4441001;32;20118;-89
2023/09/12 06:34:04;;;;;;;1.08;0.32;;;;;;;22.26;60.39;99567.66;4428003;32;20153;-89
2023/09/12 06:36:30;;;;;;;0.40;0.40;;;;;;;22.39;60.39;99574.59;4429111;32;20165;-90
2023/09/12 06:38:58;;;;;;;1.55;0.90;;;;;;;22.72;60.42;99569.09;4415100;32;20152;-90
2023/09/12 06:41:23;;;;;;;1.92;0.60;;;;;;;23.02;60.42;99567.47;4427893;32;20159;-89
2023/09/12 06:43:49;;;;;;;0.37;0.30;;;;;;;23.11;60.42;99570.16;4440713;32;20566;-89
2023/09/12 06:46:17;;;;;;;4.40;1.12;;;;;;;23.24;60.44;99573.44;4409390;32;180736;-89
2023/09/12 06:48:42;;;;;;;0.55;0.37;;;;;;;23.49;60.45;99566.81;4428342;32;20093;-89
2023/09/12 06:51:09;;;;;;;1.12;0.95;;;;;;;23.78;60.46;99571.38;4440704;32;20135;-89
2023/09/12 06:53:36;;;;;;;0.43;0.32;;;;;;;23.68;60.46;99567.88;4440793;32;20136;-89
2023/09/12 06:56:03;;;;;;;2.05;0.55;;;;;;;23.85;60.47;99562.72;4428605;32;20096;-89
2023/09/12 06:58:28;;;;;;;0.80;0.80;;;;;;;24.09;60.48;99564.13;4415050;32;20093;-89
2023/09/12 07:00:54;;;;;;;1.33;1.30;;;;;;;24.34;60.49;99554.78;4454368;32;20081;-90
2023/09/12 07:03:19;;;;;;;0.20;0.20;;;;;;;24.32;60.49;99559.41;4440483;32;20417;-89
2023/09/12 07:05:45;;;;;;;0.40;0.40;;;;;;;24.39;60.50;99560.53;4427308;32;20093;-89
2023/09/12 07:08:10;;;;;;;1.33;0.82;;;;;;;24.48;60.50;99565.00;4427098;32;20101;-89
2023/09/12 07:10:36;;;;;;;0.70;0.55;;;;;;;24.51;60.50;99564.69;4427481;32;20120;-89
2023/09/12 07:13:02;;;;;;;0.43;0.43;;;;;;;24.76;60.52;99569.41;4439813;32;20600;-89
2023/09/12 07:15:27;;;;;;;5.70;1.12;;;;;;;25.01;60.53;99570.62;4440398;32;20129;-90
2023/09/12 07:17:52;;;;;;;0.52;0.40;;;;;;;25.18;60.54;99569.03;4429501;32;20140;-89
2023/09/12 07:20:19;;;;;;;0.30;0.30;;;;;;;25.19;60.54;99576.03;4414592;32;20138;-91
2023/09/12 07:22:45;;;;;;;0.95;0.82;;;;;;;25.42;60.55;99570.34;4429773;32;20148;-89
2023/09/12 07:25:12;;;;;;;0.65;0.43;;;;;;;25.47;60.56;99568.06;4429260;32;20156;-89
2023/09/12 07:27:37;;;;;;;3.95;2.10;;;;;;;25.39;60.55;99569.66;4429153;32;20089;-89
2023/09/12 07:30:05;;;;;;;0.50;0.50;;;;;;;25.66;60.57;99568.78;4429260;32;20105;-89
2023/09/12 07:32:30;;;;;;;1.33;1.05;;;;;;;25.62;60.57;99566.56;4442044;32;20762;-90
2023/09/12 07:34:56;;;;;;;0.60;0.57;;;;;;;25.58;60.56;99567.88;4429419;32;20149;-89
2023/09/12 07:37:21;;;;;;;1.70;1.60;;;;;;;25.74;60.57;99565.41;4442178;32;20369;-90
2023/09/12 07:39:46;;;;;;;16.48;1.73;;;;;;;26.03;60.59;99562.53;4442535;32;20092;-89
2023/09/12 07:42:12;;;;;;;1.52;0.98;;;;;;;25.95;60.58;99565.13;4443019;32;20145;-90
2023/09/12 07:44:37;;;;;;;0.80;0.62;;;;;;;26.26;60.60;99560.22;4430838;32;20121;-90
2023/09/12 07:47:03;;;;;;;1.98;1.30;;;;;;;26.49;60.61;99566.78;4444077;32;20373;-90
2023/09/12 07:49:28;;;;;;;1.20;1.10;;;;;;;26.29;60.59;99570.62;4419615;32;20374;-90
2023/09/12 07:51:56;;;;;;;0.57;0.57;;;;;;;26.50;60.61;99571.16;4462447;32;20140;-90
2023/09/12 07:54:22;;;;;;;2.10;1.12;;;;;;;26.75;60.62;99564.16;4429237;32;20792;-90
2023/09/12 07:56:47;;;;;;;0.45;0.45;;;;;;;26.92;60.62;99560.56;4416300;32;20507;-90
2023/09/12 07:59:14;;;;;;;0.60;0.60;;;;;;;26.97;60.64;99559.25;4456029;32;20081;-90
2023/09/12 08:01:39;;;;;;;0.62;0.62;;;;;;;27.05;60.64;99556.69;4429273;32;20127;-90
2023/09/12 08:04:05;;;;;;;0.65;0.65;;;;;;;27.20;60.65;99563.91;4429227;32;20169;-90
2023/09/12 08:06:31;;;;;;;1.50;1.40;;;;;;;27.33;60.65;99563.50;4429006;32;20088;-90
2023/09/12 08:08:56;;;;;;;2.10;1.00;;;;;;;27.26;60.65;99550.94;4441993;32;20138;-90
2023/09/12 08:11:21;;;;;;;0.30;0.30;;;;;;;27.55;60.66;99556.72;4416214;32;20161;-90
2023/09/12 08:13:48;;;;;;;1.12;0.47;;;;;;;27.53;60.66;99562.22;4444369;32;20097;-90
2023/09/12 08:16:14;;;;;;;0.68;0.68;;;;;;;27.76;60.67;99557.16;4429055;32;20153;-91
2023/09/12 08:18:39;;;;;;;0.30;0.30;;;;;;;27.90;60.67;99552.13;4416082;32;20183;-90
2023/09/12 08:21:05;;;;;;;0.95;0.90;;;;;;;27.95;60.68;99549.84;4441646;32;20437;-90
2023/09/12 08:23:30;;;;;;;1.08;0.82;;;;;;;28.20;60.69;99553.38;4441671;32;20120;-91
2023/09/12 08:25:56;;;;;;;0.80;0.77;;;;;;;28.12;60.68;99552.34;4416018;32;20105;-90
2023/09/12 08:28:21;;;;;;;4.22;1.40;;;;;;;28.32;60.70;99550.22;4415992;32;20108;-90
2023/09/12 08:30:47;;;;;;;0.57;0.57;;;;;;;28.50;60.71;99552.72;4441493;32;20097;-91
2023/09/12 08:33:12;;;;;;;0.10;0.10;;;;;;;28.57;60.71;99548.34;4442982;32;20101;-91
2023/09/12 08:35:38;;;;;;;1.67;1.50;;;;;;;28.83;60.72;99556.16;4428832;32;20115;-91
2023/09/12 08:38:03;;;;;;;0.55;0.55;;;;;;;29.02;60.74;99554.97;4455698;32;20081;-91
2023/09/12 08:40:30;;;;;;;0.88;0.88;;;;;;;29.14;60.74;99552.78;4428995;32;20144;-90
2023/09/12 08:42:55;;;;;;;20.25;1.17;;;;;;;29.29;60.75;99553.72;4429210;32;20843;-90
2023/09/12 08:45:21;;;;;;;0.20;0.20;;;;;;;29.30;60.75;99552.69;4428396;32;20093;-91
2023/09/12 08:47:50;;;;;;;1.62;0.68;;;;;;;29.36;60.75;99552.03;4415790;32;20482;-92
2023/09/12 08:50:18;;;;;;;0.98;0.82;;;;;;;29.52;60.76;99543.91;4416110;32;20101;-91
2023/09/12 08:52:45;;;;;;;1.95;0.98;;;;;;;29.67;60.77;99545.88;4429675;32;20113;-91
2023/09/12 08:55:11;;;;;;;0.15;0.15;;;;;;;29.85;60.78;99547.25;4444079;32;20119;-92
2023/09/12 08:57:38;;;;;;;1.17;1.05;;;;;;;30.03;60.79;99544.28;4428789;32;20104;-92
2023/09/12 09:00:06;;;;;;;1.10;0.88;;;;;;;30.07;60.79;99551.00;4428610;32;20109;-92
2023/09/12 09:02:36;;;;;;;0.60;0.60;;;;;;;30.28;60.81;99553.00;4442023;32;20102;-92
2023/09/12 09:05:05;;;;;;;0.75;0.50;;;;;;;30.45;60.81;99548.31;4419928;32;20057;-93
2023/09/12 09:07:35;;;;;;;0.82;0.65;;;;;;;30.65;60.82;99538.78;4425784;32;20066;-93
2023/09/12 09:10:03;;;;;;;0.22;0.22;;;;;;;30.76;60.81;99545.56;4425599;32;20125;-94
2023/09/12 09:12:28;;;;;;;3.05;0.98;;;;;;;30.85;60.84;99544.44;4419813;32;20077;-93
2023/09/12 09:14:54;;;;;;;1.17;0.80;;;;;;;31.07;60.83;99548.91;4419794;32;20096;-95
2023/09/12 09:17:41;;;;;;;0.15;0.15;;;;;;;31.31;60.85;99536.22;4418628;32;20136;-96
2023/09/12 09:20:13;;;;;;;1.15;0.65;;;;;;;31.42;60.86;99539.25;4417433;32;20134;-96
2023/09/12 09:22:42;;;;;;;3.58;1.25;;;;;;;31.47;60.87;99527.94;4418084;32;20173;-96
2023/09/12 09:25:17;;;;;;;0.75;0.73;;;;;;;31.53;60.86;99535.25;4417671;32;20081;-96
2023/09/12 09:27:51;;;;;;;1.02;0.98;;;;;;;31.69;60.87;99537.69;4418141;32;20737;-95
2023/09/12 09:30:48;;;;;;;1.65;0.98;;;;;;;31.91;60.88;99532.34;4420498;32;20160;-95
2023/09/12 09:36:57;;;;;;;0.75;0.70;;;;;;;32.26;60.90;99539.56;4455868;32;20115;-94
2023/09/12 09:39:30;;;;;;;0.95;0.52;;;;;;;32.38;60.91;99533.66;4416080;32;20096;-94
2023/09/12 09:41:56;;;;;;;1.35;0.85;;;;;;;32.43;60.91;99529.37;4416526;32;20105;-94
2023/09/12 09:44:22;;;;;;;3.95;1.48;;;;;;;32.73;60.92;99530.00;4415738;32;20135;-94
2023/09/12 09:46:51;;;;;;;0.10;0.10;;;;;;;32.74;60.92;99528.13;4415720;32;20107;-94
2023/09/12 09:49:19;;;;;;;0.35;0.30;;;;;;;32.87;60.93;99529.06;4418303;32;20100;-93
2023/09/12 09:51:47;;;;;;;0.20;0.20;;;;;;;32.96;60.94;99530.56;4416023;32;20101;-93
2023/09/12 09:54:12;;;;;;;0.95;0.50;;;;;;;33.18;60.95;99525.09;4415992;32;20100;-93
2023/09/12 09:56:47;;;;;;;2.28;1.60;;;;;;;33.24;60.96;99527.81;4415572;32;20418;-93
2023/09/12 09:59:17;;;;;;;11.30;0.77;;;;;;;33.33;60.96;99525.78;4428303;32;20097;-93
2023/09/12 10:01:46;;;;;;;0.32;0.32;;;;;;;33.37;60.96;99526.25;4415604;32;20132;-93
2023/09/12 10:04:11;;;;;;;1.02;0.52;;;;;;;33.43;60.97;99514.63;4415585;32;20528;-92
2023/09/12 10:06:38;;;;;;;4.28;1.15;;;;;;;33.46;60.96;99519.63;4428010;32;20120;-92
2023/09/12 10:09:12;;;;;;;0.82;0.73;;;;;;;33.52;60.97;99519.63;4415921;32;20096;-92
2023/09/12 10:11:39;;;;;;;0.45;0.43;;;;;;;33.63;60.96;99520.09;4431491;32;20182;-92
2023/09/12 10:14:04;;;;;;;1.45;1.05;;;;;;;33.72;60.97;99518.88;4415504;32;20394;-92
2023/09/12 10:16:31;;;;;;;0.73;0.52;;;;;;;33.84;60.98;99512.72;4440926;32;20119;-93
2023/09/12 10:19:06;;;;;;;1.17;0.82;;;;;;;34.03;60.99;99502.12;4415534;32;20101;-92
2023/09/12 10:21:32;;;;;;;0.62;0.62;;;;;;;34.13;61.00;99516.91;4455130;32;20109;-92
2023/09/12 10:23:58;;;;;;;0.20;0.20;;;;;;;34.14;61.00;99507.75;4428162;32;20149;-92
2023/09/12 10:26:24;;;;;;;1.12;1.02;;;;;;;34.34;61.01;99506.91;4427895;32;20085;-92
2023/09/12 10:28:49;;;;;;;10.93;1.25;;;;;;;34.38;61.02;99508.19;4428017;32;20105;-92
2023/09/12 10:31:15;;;;;;;8.90;2.00;;;;;;;34.38;61.01;99505.50;4430248;32;20123;-92
2023/09/12 10:33:40;;;;;;;0.90;0.88;;;;;;;34.40;61.01;99501.53;4427926;32;20108;-93
2023/09/12 10:36:06;;;;;;;1.33;1.23;;;;;;;34.49;61.01;99499.44;4427764;32;20128;-92
2023/09/12 10:38:32;;;;;;;3.30;1.00;;;;;;;34.47;61.02;99496.94;4415299;32;20089;-92
2023/09/12 10:41:00;;;;;;;1.25;1.20;;;;;;;34.55;61.02;99490.50;4453760;32;20127;-93
2023/09/12 10:43:26;;;;;;;0.35;0.35;;;;;;;34.54;61.02;99493.41;4440880;32;20109;-92
2023/09/12 10:45:51;;;;;;;3.42;0.65;;;;;;;34.73;61.03;99492.53;4440713;32;20110;-92
2023/09/12 10:48:16;;;;;;;0.90;0.88;;;;;;;34.75;61.03;99485.88;4453701;32;20089;-92
2023/09/12 10:50:42;;;;;;;0.73;0.57;;;;;;;34.96;61.05;99487.50;4427928;32;20383;-92
2023/09/12 10:53:11;;;;;;;1.12;1.12;;;;;;;34.97;61.05;99485.63;4427767;32;20116;-91
2023/09/12 10:55:37;;;;;;;5.62;0.98;;;;;;;34.98;61.04;99490.00;4439581;32;20093;-91
2023/09/12 10:58:10;;;;;;;0.43;0.43;;;;;;;35.03;61.05;99487.50;4414991;32;20161;-92
2023/09/12 11:00:37;;;;;;;0.95;0.90;;;;;;;35.23;61.05;99484.69;4415242;32;20469;-92
2023/09/12 11:03:27;;;;;;;3.33;1.75;;;;;;;35.32;61.06;99491.53;4440421;32;20512;-92
2023/09/12 11:05:54;;;;;;;0.20;0.20;;;;;;;35.47;61.07;99481.28;4442658;32;20089;-92
2023/09/12 11:08:19;;;;;;;1.17;0.98;;;;;;;35.45;61.06;99474.41;4414769;32;20168;-91
2023/09/12 11:10:45;;;;;;;0.68;0.60;;;;;;;35.38;61.06;99469.88;4414788;32;20109;-92
2023/09/12 11:13:18;;;;;;;2.60;1.33;;;;;;;35.27;61.06;99480.53;4414593;32;20112;-91
2023/09/12 11:16:09;;;;;;;0.30;0.30;;;;;;;35.39;61.06;99476.13;4427702;32;20096;-92
2023/09/12 11:18:57;;;;;;;0.13;0.13;;;;;;;35.50;61.07;99464.62;4440078;32;20096;-92
2023/09/12 11:21:32;;;;;;;0.62;0.62;;;;;;;35.72;61.08;99464.25;4421548;32;20109;-92
2023/09/12 11:23:58;;;;;;;1.55;0.80;;;;;;;35.81;61.08;99454.84;4427587;32;20121;-93
2023/09/12 11:26:24;;;;;;;1.33;1.12;;;;;;;35.87;61.08;99462.09;4441665;32;20442;-92
2023/09/12 11:28:50;;;;;;;0.22;0.22;;;;;;;35.81;61.08;99452.13;4414554;32;20109;-92
2023/09/12 11:31:28;;;;;;;0.05;0.05;;;;;;;35.70;61.08;99461.75;4414701;32;20474;-92
2023/09/12 11:33:53;;;;;;;0.65;0.65;;;;;;;35.77;61.09;99461.75;4427130;32;20477;-92
2023/09/12 11:36:19;;;;;;;0.30;0.30;;;;;;;35.78;61.09;99456.09;4414282;32;20134;-92